createdAt,value
2019-01-16T00:01:32.741Z,98243.62
2019-01-16T00:04:19.642Z,98243.52
2019-01-16T00:07:03.086Z,98234.11
2019-01-16T00:10:03.503Z,98236.86
2019-01-16T00:12:51.720Z,98227.41
2019-01-16T00:15:48.907Z,98228.00
2019-01-16T00:18:40.125Z,98224.81
2019-01-16T00:21:27.226Z,98224.52
2019-01-16T00:24:13.268Z,98232.45
2019-01-16T00:27:02.364Z,98227.05
2019-01-16T00:30:08.669Z,98229.00
2019-01-16T00:32:56.887Z,98227.05
2019-01-16T00:35:43.931Z,98216.59
2019-01-16T00:38:35.373Z,98222.00
2019-01-16T00:41:15.591Z,98221.14
2019-01-16T00:44:12.658Z,98223.30
2019-01-16T00:47:12.957Z,98225.55
2019-01-16T00:49:59.987Z,98215.23
2019-01-16T00:52:47.104Z,98222.50
2019-01-16T00:55:35.319Z,98215.98
2019-01-16T00:58:15.031Z,98221.94
2019-01-16T01:01:02.389Z,98206.03
2019-01-16T01:04:02.628Z,98208.89
2019-01-16T01:07:00.189Z,98205.78
2019-01-16T01:09:41.415Z,98210.19
2019-01-16T01:12:21.167Z,98209.48
2019-01-16T01:15:08.226Z,98219.05
2019-01-16T01:18:14.833Z,98217.09
2019-01-16T01:21:05.827Z,98217.59
2019-01-16T01:24:06.235Z,98218.49
2019-01-16T01:26:52.914Z,98211.48
2019-01-16T01:29:40.001Z,98222.50
2019-01-16T01:32:25.597Z,98225.61
2019-01-16T01:35:12.832Z,98220.04
2019-01-16T01:37:59.632Z,98225.20
2019-01-16T01:40:50.900Z,98223.05
2019-01-16T01:43:30.972Z,98218.80
2019-01-16T01:46:13.818Z,98222.35
2019-01-16T01:49:14.075Z,98212.39
2019-01-16T01:52:12.180Z,98214.49
2019-01-16T01:54:59.244Z,98211.98
2019-01-16T01:57:56.600Z,98213.14
2019-01-16T02:00:54.887Z,98212.29
2019-01-16T02:03:55.070Z,98210.69
2019-01-16T02:06:33.512Z,98206.88
2019-01-16T02:09:29.643Z,98198.38
2019-01-16T02:12:16.769Z,98200.23
2019-01-16T02:15:02.153Z,98200.48
2019-01-16T02:17:51.668Z,98192.88
2019-01-16T02:20:40.001Z,98193.11
2019-01-16T02:23:23.537Z,98191.58
2019-01-16T02:26:08.323Z,98195.08
2019-01-16T02:28:56.887Z,98186.17
2019-01-16T02:31:43.950Z,98184.47
2019-01-16T02:34:32.142Z,98186.76
2019-01-16T02:37:09.715Z,98181.77
2019-01-16T02:39:53.306Z,98180.36
2019-01-16T02:42:34.128Z,98177.05
2019-01-16T02:45:22.327Z,98178.02
2019-01-16T02:48:15.312Z,98173.71
2019-01-16T02:51:02.364Z,98169.41
2019-01-16T02:54:06.124Z,98168.06
2019-01-16T02:57:03.070Z,98166.41
2019-01-16T03:00:03.724Z,98166.59
2019-01-16T03:02:51.962Z,98162.55
2019-01-16T03:05:39.073Z,98155.29
2019-01-16T03:08:20.859Z,98161.69
2019-01-16T03:11:09.162Z,98155.53
2019-01-16T03:14:06.502Z,98146.08
2019-01-16T03:16:53.600Z,98147.73
2019-01-16T03:19:53.832Z,98146.58
2019-01-16T03:22:40.759Z,98140.63
2019-01-16T03:25:37.846Z,98138.17
2019-01-16T03:28:28.925Z,98139.44
2019-01-16T03:31:19.900Z,98146.08
2019-01-16T03:34:06.792Z,98147.18
2019-01-16T03:36:58.070Z,98145.97
2019-01-16T03:40:01.681Z,98141.66
2019-01-16T03:42:42.169Z,98137.91
2019-01-16T03:45:24.388Z,98134.91
2019-01-16T03:48:11.491Z,98125.81
2019-01-16T03:51:04.853Z,98122.44
2019-01-16T03:54:11.541Z,98121.25
2019-01-16T03:57:11.429Z,98117.27
2019-01-16T03:59:59.618Z,98113.95
2019-01-16T04:02:46.426Z,98109.40
2019-01-16T04:05:33.281Z,98112.66
2019-01-16T04:08:30.899Z,98112.80
2019-01-16T04:11:34.156Z,98108.38
2019-01-16T04:14:14.854Z,98105.89
2019-01-16T04:17:01.709Z,98109.23
2019-01-16T04:19:40.054Z,98104.20
2019-01-16T04:22:37.545Z,98106.28
2019-01-16T04:25:24.868Z,98113.89
2019-01-16T04:28:11.715Z,98109.34
2019-01-16T04:31:07.093Z,98114.33
2019-01-16T04:33:54.493Z,98111.07
2019-01-16T04:36:48.925Z,98101.92
2019-01-16T04:39:43.417Z,98097.31
2019-01-16T04:42:23.154Z,98101.00
2019-01-16T04:45:20.473Z,98103.16
2019-01-16T04:48:00.854Z,98095.34
2019-01-16T04:50:47.834Z,98100.63
2019-01-16T04:53:34.701Z,98108.38
2019-01-16T04:56:22.186Z,98106.52
2019-01-16T04:59:13.598Z,98100.75
2019-01-16T05:02:05.045Z,98099.63
2019-01-16T05:05:08.490Z,98100.88
2019-01-16T05:07:55.656Z,98103.94
2019-01-16T05:10:49.943Z,98107.89
2019-01-16T05:13:41.209Z,98102.83
2019-01-16T05:16:32.240Z,98092.77
2019-01-16T05:19:19.224Z,98087.36
2019-01-16T05:22:13.518Z,98093.06
2019-01-16T05:25:06.902Z,98090.42
2019-01-16T05:27:58.186Z,98086.13
2019-01-16T05:30:42.457Z,98091.92
2019-01-16T05:33:20.272Z,98088.84
2019-01-16T05:36:14.485Z,98087.92
2019-01-16T05:39:11.705Z,98091.16
2019-01-16T05:41:58.818Z,98090.69
2019-01-16T05:44:50.074Z,98091.37
2019-01-16T05:47:30.031Z,98083.56
2019-01-16T05:50:07.769Z,98083.68
2019-01-16T05:52:48.678Z,98085.39
2019-01-16T05:55:31.654Z,98078.77
2019-01-16T05:58:10.971Z,98077.17
2019-01-16T06:01:12.860Z,98071.27
2019-01-16T06:04:13.352Z,98067.34
2019-01-16T06:06:59.948Z,98069.79
2019-01-16T06:09:50.938Z,98072.00
2019-01-16T06:12:42.074Z,98066.59
2019-01-16T06:15:27.365Z,98061.88
2019-01-16T06:18:28.145Z,98059.11
2019-01-16T06:21:16.338Z,98058.50
2019-01-16T06:24:04.900Z,98064.16
2019-01-16T06:27:05.483Z,98061.30
2019-01-16T06:30:09.374Z,98057.98
2019-01-16T06:33:06.901Z,98058.55
2019-01-16T06:36:01.401Z,98060.34
2019-01-16T06:38:58.336Z,98052.97
2019-01-16T06:41:35.946Z,98047.45
2019-01-16T06:44:30.883Z,98052.85
2019-01-16T06:47:25.146Z,98049.66
2019-01-16T06:50:16.836Z,98050.63
2019-01-16T06:53:10.922Z,98050.87
2019-01-16T06:56:11.185Z,98045.23
2019-01-16T06:59:14.504Z,98048.55
2019-01-16T07:02:01.288Z,98046.22
2019-01-16T07:04:48.288Z,98045.16
2019-01-16T07:07:35.111Z,98048.86
2019-01-16T07:10:19.809Z,98048.17
2019-01-16T07:12:57.778Z,98046.48
2019-01-16T07:15:47.982Z,98051.38
2019-01-16T07:18:37.734Z,98051.52
2019-01-16T07:21:24.914Z,98053.88
2019-01-16T07:24:07.347Z,98056.42
2019-01-16T07:26:58.410Z,98050.03
2019-01-16T07:30:04.750Z,98043.77
2019-01-16T07:32:52.970Z,98039.47
2019-01-16T07:35:41.190Z,98048.68
2019-01-16T07:38:44.866Z,98041.05
2019-01-16T07:41:45.037Z,98039.11
2019-01-16T07:44:27.908Z,98036.41
2019-01-16T07:47:09.903Z,98044.77
2019-01-16T07:49:57.044Z,98045.11
2019-01-16T07:52:55.442Z,98052.66
2019-01-16T07:55:49.973Z,98044.81
2019-01-16T07:58:27.440Z,98052.86
2019-01-16T08:01:26.539Z,98053.08
2019-01-16T08:04:20.964Z,98057.13
2019-01-16T08:07:09.047Z,98063.41
2019-01-16T08:10:06.570Z,98055.92
2019-01-16T08:13:06.296Z,98060.03
2019-01-16T08:15:54.519Z,98060.23
2019-01-16T08:19:02.072Z,98060.58
2019-01-16T08:21:49.042Z,98067.94
2019-01-16T08:24:46.345Z,98069.50
2019-01-16T08:27:43.505Z,98062.48
2019-01-16T08:30:32.139Z,98062.06
2019-01-16T08:33:26.222Z,98065.63
2019-01-16T08:36:23.602Z,98055.78
2019-01-16T08:39:14.778Z,98057.22
2019-01-16T08:42:08.989Z,98064.51
2019-01-16T08:45:00.348Z,98064.39
2019-01-16T08:47:57.926Z,98058.37
2019-01-16T08:50:46.141Z,98060.16
2019-01-16T08:53:31.176Z,98066.05
2019-01-16T08:56:21.190Z,98061.64
2019-01-16T08:59:15.436Z,98059.34
2019-01-16T09:02:02.234Z,98058.98
2019-01-16T09:04:49.376Z,98058.00
2019-01-16T09:07:36.693Z,98059.47
2019-01-16T09:10:16.810Z,98045.64
2019-01-16T09:13:01.484Z,98046.17
2019-01-16T09:16:01.859Z,98054.11
2019-01-16T09:18:56.350Z,98050.88
2019-01-16T09:21:50.635Z,98046.02
2019-01-16T09:24:33.263Z,98041.93
2019-01-16T09:27:39.643Z,98039.14
2019-01-16T09:30:32.583Z,98045.00
2019-01-16T09:33:19.385Z,98045.05
2019-01-16T09:35:56.656Z,98049.27
2019-01-16T09:38:45.579Z,98039.69
2019-01-16T09:41:36.820Z,98033.96
2019-01-16T09:44:23.922Z,98019.69
2019-01-16T09:47:04.619Z,98014.45
2019-01-16T09:49:50.563Z,98019.37
2019-01-16T09:52:40.334Z,98023.81
2019-01-16T09:55:24.156Z,98014.48
2019-01-16T09:58:21.488Z,98021.03
2019-01-16T10:01:08.566Z,98011.53
2019-01-16T10:03:52.367Z,98001.11
2019-01-16T10:06:52.963Z,98010.19
2019-01-16T10:09:39.918Z,98008.21
2019-01-16T10:12:37.171Z,97995.30
2019-01-16T10:15:27.646Z,97989.28
2019-01-16T10:18:09.590Z,97981.19
2019-01-16T10:20:55.445Z,97973.13
2019-01-16T10:23:38.909Z,97967.48
2019-01-16T10:26:27.146Z,97970.92
2019-01-16T10:29:17.022Z,97963.97
2019-01-16T10:31:56.474Z,97955.01
2019-01-16T10:35:00.598Z,97951.29
2019-01-16T10:38:00.781Z,97956.06
2019-01-16T10:40:47.752Z,97946.95
2019-01-16T10:43:39.098Z,97943.03
2019-01-16T10:46:30.060Z,97935.33
2019-01-16T10:49:24.351Z,97920.95
2019-01-16T10:52:15.351Z,97920.17
2019-01-16T10:55:06.632Z,97919.59
2019-01-16T10:58:06.918Z,97906.45
2019-01-16T11:00:47.219Z,97901.58
2019-01-16T11:03:41.534Z,97899.31
2019-01-16T11:06:29.750Z,97889.67
2019-01-16T11:09:24.314Z,97888.11
2019-01-16T11:12:11.162Z,97896.69
2019-01-16T11:15:05.517Z,97884.13
2019-01-16T11:17:53.699Z,97889.43
2019-01-16T11:20:54.241Z,97887.64
2019-01-16T11:23:42.595Z,97894.72
2019-01-16T11:26:27.997Z,97887.70
2019-01-16T11:29:17.752Z,97880.85
2019-01-16T11:32:08.910Z,97874.89
2019-01-16T11:34:56.144Z,97865.95
2019-01-16T11:37:51.493Z,97865.69
2019-01-16T11:40:41.633Z,97860.94
2019-01-16T11:46:14.543Z,97839.03
2019-01-16T11:49:18.254Z,97829.48
2019-01-16T11:52:15.514Z,97825.09
2019-01-16T11:54:59.823Z,97814.07
2019-01-16T11:57:56.977Z,97807.93
2019-01-16T12:00:36.574Z,97795.83
2019-01-16T12:03:27.610Z,97787.17
2019-01-16T12:06:10.846Z,97779.80
2019-01-16T12:08:59.036Z,97780.92
2019-01-16T12:11:47.386Z,97779.25
2019-01-16T12:14:26.411Z,97785.66
2019-01-16T12:17:13.330Z,97790.77
2019-01-16T12:20:04.502Z,97783.64
2019-01-16T12:22:45.003Z,97780.84
2019-01-16T12:25:21.144Z,97768.17
2019-01-16T12:28:08.059Z,97751.34
2019-01-16T12:30:57.304Z,97753.44
2019-01-16T12:33:44.199Z,97733.22
2019-01-16T12:36:38.508Z,97723.41
2019-01-16T12:39:27.845Z,97725.80
2019-01-16T12:42:19.105Z,97724.38
2019-01-16T12:45:13.218Z,97719.00
2019-01-16T12:47:51.123Z,97714.06
2019-01-16T12:50:38.076Z,97711.53
2019-01-16T12:53:29.018Z,97706.94
2019-01-16T12:56:15.910Z,97702.22
2019-01-16T12:59:04.103Z,97701.31
2019-01-16T13:01:54.798Z,97694.47
2019-01-16T13:04:42.998Z,97683.66
2019-01-16T13:07:29.793Z,97676.70
2019-01-16T13:10:17.122Z,97678.68
2019-01-16T13:13:09.368Z,97677.50
2019-01-16T13:16:09.608Z,97676.07
2019-01-16T13:18:54.460Z,97678.02
2019-01-16T13:21:41.639Z,97681.19
2019-01-16T13:24:29.880Z,97690.20
2019-01-16T13:27:18.084Z,97689.75
2019-01-16T13:30:15.586Z,97680.45
2019-01-16T13:33:06.142Z,97686.98
2019-01-16T13:35:55.835Z,97687.09
2019-01-16T13:38:46.874Z,97676.48
2019-01-16T13:41:29.878Z,97686.30
2019-01-16T13:44:18.096Z,97687.36
2019-01-16T13:47:09.618Z,97688.02
2019-01-16T13:50:04.783Z,97692.52
2019-01-16T13:52:49.302Z,97683.23
2019-01-16T13:55:46.546Z,97687.98
2019-01-16T13:58:24.101Z,97691.13
2019-01-16T14:01:13.337Z,97691.06
2019-01-16T14:04:13.580Z,97689.96
2019-01-16T14:07:20.190Z,97681.98
2019-01-16T14:10:11.420Z,97677.63
2019-01-16T14:12:58.223Z,97674.08
2019-01-16T14:15:46.046Z,97664.64
2019-01-16T14:18:37.496Z,97652.25
2019-01-16T14:21:24.678Z,97650.60
2019-01-16T14:24:15.884Z,97650.09
2019-01-16T14:26:56.443Z,97638.66
2019-01-16T14:29:47.511Z,97633.05
2019-01-16T14:32:47.926Z,97624.05
2019-01-16T14:35:48.470Z,97609.09
2019-01-16T14:38:55.060Z,97614.16
2019-01-16T14:41:35.270Z,97608.50
2019-01-16T14:44:35.902Z,97607.39
2019-01-16T14:47:24.495Z,97594.16
2019-01-16T14:50:16.983Z,97590.48
2019-01-16T14:53:11.410Z,97597.31
2019-01-16T14:56:08.795Z,97589.75
2019-01-16T14:58:55.370Z,97582.70
2019-01-16T15:01:43.603Z,97580.98
2019-01-16T15:04:34.590Z,97586.29
2019-01-16T15:07:28.897Z,97578.53
2019-01-16T15:10:17.099Z,97572.72
2019-01-16T15:13:04.183Z,97578.04
2019-01-16T15:15:47.879Z,97571.27
2019-01-16T15:18:34.764Z,97576.64
2019-01-16T15:21:20.882Z,97575.52
2019-01-16T15:24:09.107Z,97571.92
2019-01-16T15:26:56.258Z,97574.98
2019-01-16T15:29:59.819Z,97569.47
2019-01-16T15:32:50.837Z,97567.58
2019-01-16T15:35:47.996Z,97561.66
2019-01-16T15:38:33.647Z,97566.75
2019-01-16T15:41:21.023Z,97566.96
2019-01-16T15:44:15.419Z,97561.55
2019-01-16T15:46:56.388Z,97562.43
2019-01-16T15:49:39.035Z,97558.45
2019-01-16T15:52:25.901Z,97556.84
2019-01-16T15:55:13.807Z,97562.87
2019-01-16T15:58:00.612Z,97559.36
2019-01-16T16:00:48.942Z,97558.17
2019-01-16T16:03:36.068Z,97557.08
2019-01-16T16:06:22.995Z,97562.43
2019-01-16T16:09:01.618Z,97557.02
2019-01-16T16:11:48.954Z,97549.14
2019-01-16T16:14:28.463Z,97543.55
2019-01-16T16:17:12.224Z,97542.61
2019-01-16T16:19:59.272Z,97548.02
2019-01-16T16:22:38.987Z,97542.61
2019-01-16T16:25:16.946Z,97542.70
2019-01-16T16:28:11.016Z,97539.98
2019-01-16T16:31:17.570Z,97539.72
2019-01-16T16:34:03.103Z,97540.60
2019-01-16T16:36:47.094Z,97532.69
2019-01-16T16:39:50.470Z,97534.38
2019-01-16T16:42:30.008Z,97536.36
2019-01-16T16:45:27.361Z,97531.31
2019-01-16T16:48:26.542Z,97531.83
2019-01-16T16:51:18.083Z,97534.34
2019-01-16T16:54:14.045Z,97526.66
2019-01-16T16:57:09.056Z,97522.61
2019-01-16T16:59:47.692Z,97522.94
2019-01-16T17:02:51.488Z,97520.87
2019-01-16T17:05:44.709Z,97510.53
2019-01-16T17:08:32.166Z,97513.83
2019-01-16T17:11:32.317Z,97508.50
2019-01-16T17:14:23.375Z,97506.83
2019-01-16T17:17:10.143Z,97503.10
2019-01-16T17:19:59.814Z,97494.75
2019-01-16T17:22:51.079Z,97488.88
2019-01-16T17:25:33.657Z,97478.87
2019-01-16T17:28:21.871Z,97481.33
2019-01-16T17:31:10.116Z,97474.61
2019-01-16T17:34:04.287Z,97476.44
2019-01-16T17:36:46.838Z,97473.86
2019-01-16T17:39:53.306Z,97470.87
2019-01-16T17:42:44.625Z,97466.59
2019-01-16T17:45:36.132Z,97457.22
2019-01-16T17:48:36.523Z,97449.91
2019-01-16T17:51:27.578Z,97462.30
2019-01-16T17:54:18.519Z,97452.30
2019-01-16T17:57:05.404Z,97446.89
2019-01-16T17:59:52.368Z,97450.78
2019-01-16T18:02:48.838Z,97444.06
2019-01-16T18:05:37.166Z,97448.83
2019-01-16T18:08:24.574Z,97439.05
2019-01-16T18:11:12.799Z,97440.98
2019-01-16T18:13:57.462Z,97432.06
2019-01-16T18:16:46.794Z,97433.30
2019-01-16T18:19:33.919Z,97429.00
2019-01-16T18:22:20.996Z,97429.80
2019-01-16T18:25:08.029Z,97423.45
2019-01-16T18:27:56.244Z,97426.55
2019-01-16T18:30:59.553Z,97428.84
2019-01-16T18:33:59.793Z,97418.35
2019-01-16T18:36:51.912Z,97419.00
2019-01-16T18:39:32.080Z,97419.63
2019-01-16T18:42:29.508Z,97421.84
2019-01-16T18:45:17.738Z,97409.47
2019-01-16T18:48:04.632Z,97412.03
2019-01-16T18:50:53.396Z,97409.23
2019-01-16T18:53:48.288Z,97407.27
2019-01-16T18:56:44.925Z,97413.44
2019-01-16T18:59:39.306Z,97401.63
2019-01-16T19:02:34.015Z,97386.64
2019-01-16T19:05:20.539Z,97388.53
2019-01-16T19:08:10.235Z,97389.16
2019-01-16T19:11:03.184Z,97378.13
2019-01-16T19:14:00.456Z,97370.45
2019-01-16T19:16:47.820Z,97377.59
2019-01-16T19:19:36.864Z,97367.83
2019-01-16T19:22:35.465Z,97366.72
2019-01-16T19:25:17.015Z,97362.38
2019-01-16T19:28:05.471Z,97357.22
2019-01-16T19:30:54.449Z,97358.72
2019-01-16T19:33:52.793Z,97349.52
2019-01-16T19:36:44.684Z,97347.93
2019-01-16T19:39:51.425Z,97344.37
2019-01-16T19:42:49.087Z,97347.84
2019-01-16T19:45:40.182Z,97355.70
2019-01-16T19:48:38.457Z,97355.45
2019-01-16T19:51:29.571Z,97355.39
2019-01-16T19:54:16.981Z,97348.95
2019-01-16T19:57:04.187Z,97357.84
2019-01-16T19:59:53.581Z,97358.23
2019-01-16T20:02:40.883Z,97358.30
2019-01-16T20:05:28.103Z,97353.70
2019-01-16T20:08:28.656Z,97355.05
2019-01-16T20:11:20.369Z,97361.55
2019-01-16T20:14:10.137Z,97355.05
2019-01-16T20:16:57.807Z,97349.12
2019-01-16T20:19:41.825Z,97343.64
2019-01-16T20:22:36.234Z,97340.94
2019-01-16T20:25:29.577Z,97336.72
2019-01-16T20:28:32.874Z,97331.23
2019-01-16T20:31:20.079Z,97330.13
2019-01-16T20:34:12.737Z,97331.86
2019-01-16T20:36:59.722Z,97336.45
2019-01-16T20:39:51.071Z,97341.77
2019-01-16T20:42:36.908Z,97336.28
2019-01-16T20:45:25.496Z,97339.63
2019-01-16T20:48:12.740Z,97341.53
2019-01-16T20:50:56.186Z,97337.70
2019-01-16T20:53:44.716Z,97339.14
2019-01-16T20:56:30.207Z,97334.52
2019-01-16T20:59:17.600Z,97327.78
2019-01-16T21:02:04.993Z,97334.20
2019-01-16T21:05:08.672Z,97338.31
2019-01-16T21:08:06.169Z,97332.61
2019-01-16T21:10:43.257Z,97331.69
2019-01-16T21:13:30.974Z,97328.64
2019-01-16T21:16:10.910Z,97329.27
2019-01-16T21:18:57.780Z,97327.22
2019-01-16T21:21:54.962Z,97335.14
2019-01-16T21:24:57.250Z,97335.86
2019-01-16T21:27:44.322Z,97336.73
2019-01-16T21:30:27.650Z,97340.39
2019-01-16T21:33:36.054Z,97337.52
2019-01-16T21:36:25.139Z,97331.27
2019-01-16T21:39:31.894Z,97333.54
2019-01-16T21:42:20.181Z,97329.88
2019-01-16T21:45:07.328Z,97328.84
2019-01-16T21:47:54.408Z,97322.91
2019-01-16T21:50:41.927Z,97321.36
2019-01-16T21:53:30.396Z,97315.00
2019-01-16T21:56:31.391Z,97313.86
2019-01-16T21:59:20.238Z,97301.05
2019-01-16T22:02:11.207Z,97299.36
2019-01-16T22:04:59.745Z,97295.11
2019-01-16T22:07:54.266Z,97292.87
2019-01-16T22:10:51.903Z,97292.84
2019-01-16T22:13:49.495Z,97292.36
2019-01-16T22:16:43.888Z,97288.77
2019-01-16T22:19:30.860Z,97288.25
2019-01-16T22:22:25.659Z,97289.05
2019-01-16T22:25:05.948Z,97284.28
2019-01-16T22:27:53.022Z,97283.80
2019-01-16T22:30:53.767Z,97284.45
2019-01-16T22:33:33.882Z,97286.20
2019-01-16T22:36:22.102Z,97281.69
2019-01-16T22:39:13.359Z,97279.88
2019-01-16T22:42:00.159Z,97275.84
2019-01-16T22:44:51.392Z,97282.58
2019-01-16T22:47:42.518Z,97273.84
2019-01-16T22:50:31.295Z,97264.90
2019-01-16T22:53:19.544Z,97272.91
2019-01-16T22:56:17.068Z,97268.77
2019-01-16T22:59:14.419Z,97261.31
2019-01-16T23:01:53.655Z,97266.70
2019-01-16T23:04:43.347Z,97260.06
2019-01-16T23:07:40.688Z,97256.41
2019-01-16T23:10:29.159Z,97248.19
2019-01-16T23:13:26.273Z,97252.15
2019-01-16T23:16:13.346Z,97246.12
2019-01-16T23:19:00.239Z,97237.41
2019-01-16T23:21:47.219Z,97235.69
2019-01-16T23:24:22.211Z,97233.14
2019-01-16T23:27:19.000Z,97229.96
2019-01-16T23:30:07.199Z,97230.66
2019-01-16T23:33:01.504Z,97228.30
2019-01-16T23:35:44.779Z,97226.38
2019-01-16T23:38:34.165Z,97230.59
2019-01-16T23:41:25.439Z,97230.97
2019-01-16T23:44:13.702Z,97233.86
2019-01-16T23:46:59.056Z,97224.41
2019-01-16T23:49:59.649Z,97222.51
2019-01-16T23:52:57.039Z,97219.91
2019-01-16T23:55:41.012Z,97219.64
2019-01-16T23:58:23.972Z,97216.03
